createdAt,value
2018-02-25T00:02:19.641Z,96756.55
2018-02-25T00:04:47.231Z,96757.34
2018-02-25T00:07:14.881Z,96759.79
2018-02-25T00:09:42.445Z,96753.94
2018-02-25T00:12:10.097Z,96753.86
2018-02-25T00:14:37.730Z,96761.80
2018-02-25T00:17:05.782Z,96762.16
2018-02-25T00:19:33.388Z,96764.56
2018-02-25T00:22:01.021Z,96760.41
2018-02-25T00:24:28.609Z,96763.14
2018-02-25T00:26:56.547Z,96762.61
2018-02-25T00:29:24.183Z,96770.80
2018-02-25T00:31:51.887Z,96771.95
2018-02-25T00:34:19.500Z,96776.54
2018-02-25T00:36:47.117Z,96787.06
2018-02-25T00:39:14.980Z,96772.23
2018-02-25T00:41:42.720Z,96774.37
2018-02-25T00:44:10.522Z,96771.92
2018-02-25T00:46:38.198Z,96774.86
2018-02-25T00:49:06.028Z,96766.98
2018-02-25T00:51:33.612Z,96771.10
2018-02-25T00:54:01.217Z,96772.33
2018-02-25T00:56:28.826Z,96774.78
2018-02-25T00:58:56.764Z,96772.20
2018-02-25T01:01:24.345Z,96775.34
2018-02-25T01:03:51.910Z,96777.64
2018-02-25T01:06:19.576Z,96777.52
2018-02-25T01:08:47.146Z,96774.93
2018-02-25T01:11:15.036Z,96775.21
2018-02-25T01:13:42.660Z,96777.22
2018-02-25T01:16:10.300Z,96777.15
2018-02-25T01:18:37.906Z,96776.24
2018-02-25T01:21:05.570Z,96773.70
2018-02-25T01:23:33.177Z,96771.63
2018-02-25T01:26:00.789Z,96769.01
2018-02-25T01:28:28.382Z,96763.56
2018-02-25T01:30:55.987Z,96763.87
2018-02-25T01:33:23.703Z,96763.42
2018-02-25T01:35:51.312Z,96761.34
2018-02-25T01:38:18.901Z,96758.82
2018-02-25T01:40:46.514Z,96763.79
2018-02-25T01:43:14.066Z,96758.36
2018-02-25T01:45:41.669Z,96757.95
2018-02-25T01:48:09.276Z,96764.89
2018-02-25T01:50:48.607Z,96758.62
2018-02-25T01:53:16.484Z,96765.17
2018-02-25T01:55:44.084Z,96760.95
2018-02-25T01:58:11.651Z,96760.81
2018-02-25T02:00:39.247Z,96757.03
2018-02-25T02:03:07.224Z,96759.81
2018-02-25T02:05:35.352Z,96753.59
2018-02-25T02:08:03.781Z,96758.16
2018-02-25T02:10:31.424Z,96753.19
2018-02-25T02:12:59.095Z,96758.91
2018-02-25T02:15:26.776Z,96753.97
2018-02-25T02:17:54.445Z,96751.16
2018-02-25T02:20:22.081Z,96754.53
2018-02-25T02:22:49.729Z,96750.91
2018-02-25T02:25:17.816Z,96754.17
2018-02-25T02:27:45.467Z,96756.63
2018-02-25T02:30:13.212Z,96750.34
2018-02-25T02:32:40.794Z,96749.45
2018-02-25T02:35:08.449Z,96748.52
2018-02-25T02:37:36.075Z,96755.00
2018-02-25T02:40:03.730Z,96753.37
2018-02-25T02:42:31.397Z,96754.59
2018-02-25T02:44:59.018Z,96758.66
2018-02-25T02:47:26.631Z,96752.44
2018-02-25T02:49:54.279Z,96744.16
2018-02-25T02:52:22.673Z,96756.56
2018-02-25T02:54:50.297Z,96751.20
2018-02-25T02:57:17.903Z,96754.46
2018-02-25T02:59:45.495Z,96750.85
2018-02-25T03:02:15.924Z,96761.97
2018-02-25T03:04:46.773Z,96758.29
2018-02-25T03:07:19.550Z,96765.28
2018-02-25T03:09:49.748Z,96763.20
2018-02-25T03:12:37.340Z,96764.33
2018-02-25T03:15:05.203Z,96763.94
2018-02-25T03:17:32.824Z,96764.25
2018-02-25T03:20:00.675Z,96765.84
2018-02-25T03:22:28.292Z,96765.80
2018-02-25T03:24:55.886Z,96770.22
2018-02-25T03:27:23.598Z,96767.70
2018-02-25T03:29:51.195Z,96770.47
2018-02-25T03:32:20.409Z,96762.95
2018-02-25T03:34:48.000Z,96769.06
2018-02-25T03:37:15.585Z,96768.15
2018-02-25T03:39:43.541Z,96764.42
2018-02-25T03:42:11.114Z,96769.39
2018-02-25T03:44:38.690Z,96766.15
2018-02-25T03:47:06.560Z,96769.95
2018-02-25T03:49:34.297Z,96769.61
2018-02-25T03:52:01.920Z,96760.69
2018-02-25T03:54:29.525Z,96756.58
2018-02-25T03:56:57.137Z,96772.30
2018-02-25T03:59:24.949Z,96757.14
2018-02-25T04:01:52.606Z,96763.00
2018-02-25T04:04:21.153Z,96765.47
2018-02-25T04:06:48.750Z,96764.23
2018-02-25T04:09:16.565Z,96767.59
2018-02-25T04:11:44.253Z,96766.52
2018-02-25T04:14:11.847Z,96760.50
2018-02-25T04:16:39.456Z,96761.37
2018-02-25T04:19:07.195Z,96753.97
2018-02-25T04:21:34.803Z,96758.47
2018-02-25T04:24:02.398Z,96760.83
2018-02-25T04:26:30.007Z,96758.68
2018-02-25T04:28:57.616Z,96758.94
2018-02-25T04:31:27.774Z,96756.72
2018-02-25T04:33:55.717Z,96758.21
2018-02-25T04:36:23.362Z,96763.41
2018-02-25T04:38:50.998Z,96762.86
2018-02-25T04:41:18.572Z,96768.86
2018-02-25T04:43:46.182Z,96764.19
2018-02-25T04:46:13.884Z,96766.92
2018-02-25T04:48:41.443Z,96761.52
2018-02-25T04:51:09.831Z,96758.56
2018-02-25T04:53:37.526Z,96753.63
2018-02-25T04:56:05.122Z,96753.66
2018-02-25T04:58:33.067Z,96747.14
2018-02-25T05:01:00.746Z,96745.61
2018-02-25T05:03:29.464Z,96748.45
2018-02-25T05:05:57.131Z,96751.84
2018-02-25T05:08:24.742Z,96744.38
2018-02-25T05:10:52.335Z,96750.50
2018-02-25T05:13:19.980Z,96757.09
2018-02-25T05:15:47.545Z,96755.07
2018-02-25T05:18:15.149Z,96761.84
2018-02-25T05:20:42.775Z,96766.78
2018-02-25T05:23:11.917Z,96767.20
2018-02-25T05:25:39.513Z,96763.71
2018-02-25T05:28:07.181Z,96775.03
2018-02-25T05:30:34.786Z,96771.75
2018-02-25T05:33:02.416Z,96768.94
2018-02-25T05:35:30.067Z,96763.19
2018-02-25T05:37:57.647Z,96769.75
2018-02-25T05:40:25.291Z,96775.48
2018-02-25T05:42:53.199Z,96773.41
2018-02-25T05:45:20.805Z,96777.42
2018-02-25T05:47:48.363Z,96778.59
2018-02-25T05:50:16.313Z,96780.69
2018-02-25T05:52:44.084Z,96780.77
2018-02-25T05:55:12.729Z,96777.56
2018-02-25T05:57:40.334Z,96788.03
2018-02-25T06:00:08.144Z,96781.91
2018-02-25T06:02:35.716Z,96782.45
2018-02-25T06:05:03.355Z,96773.81
2018-02-25T06:07:32.457Z,96775.48
2018-02-25T06:10:00.051Z,96775.88
2018-02-25T06:12:28.389Z,96781.22
2018-02-25T06:14:55.976Z,96785.34
2018-02-25T06:17:24.389Z,96786.90
2018-02-25T06:19:52.056Z,96788.53
2018-02-25T06:22:19.688Z,96793.37
2018-02-25T06:24:47.306Z,96795.33
2018-02-25T06:27:14.992Z,96790.70
2018-02-25T06:29:42.599Z,96790.21
2018-02-25T06:32:10.381Z,96788.16
2018-02-25T06:34:37.979Z,96784.82
2018-02-25T06:37:06.029Z,96786.83
2018-02-25T06:39:33.953Z,96788.90
2018-02-25T06:42:01.562Z,96788.03
2018-02-25T06:44:29.230Z,96785.52
2018-02-25T06:46:56.832Z,96790.58
2018-02-25T06:49:24.627Z,96789.50
2018-02-25T06:51:52.232Z,96791.34
2018-02-25T06:54:19.862Z,96787.02
2018-02-25T06:56:47.511Z,96793.34
2018-02-25T06:59:15.099Z,96798.74
2018-02-25T07:01:42.767Z,96797.47
2018-02-25T07:04:10.386Z,96788.43
2018-02-25T07:06:37.980Z,96793.47
2018-02-25T07:09:06.141Z,96793.55
2018-02-25T07:11:34.932Z,96790.28
2018-02-25T07:14:03.280Z,96791.18
2018-02-25T07:16:30.859Z,96789.27
2018-02-25T07:18:58.452Z,96782.27
2018-02-25T07:21:26.402Z,96781.55
2018-02-25T07:23:55.043Z,96772.74
2018-02-25T07:26:22.641Z,96787.22
2018-02-25T07:28:50.465Z,96787.31
2018-02-25T07:31:18.045Z,96786.81
2018-02-25T07:33:45.696Z,96791.69
2018-02-25T07:36:13.365Z,96790.34
2018-02-25T07:38:40.954Z,96789.52
2018-02-25T07:41:08.528Z,96797.43
2018-02-25T07:43:36.155Z,96794.16
2018-02-25T07:46:03.729Z,96800.14
2018-02-25T07:48:31.297Z,96795.77
2018-02-25T07:50:58.889Z,96796.24
2018-02-25T07:53:26.506Z,96791.30
2018-02-25T07:55:57.042Z,96790.98
2018-02-25T07:58:24.629Z,96791.40
2018-02-25T08:00:52.275Z,96792.22
2018-02-25T08:03:20.581Z,96793.41
2018-02-25T08:05:48.212Z,96792.16
2018-02-25T08:08:16.013Z,96788.06
2018-02-25T08:10:43.602Z,96794.30
2018-02-25T08:13:12.003Z,96795.97
2018-02-25T08:15:41.180Z,96795.55
2018-02-25T08:18:08.729Z,96804.70
2018-02-25T08:20:36.305Z,96804.25
2018-02-25T08:23:03.898Z,96799.33
2018-02-25T08:25:31.538Z,96796.41
2018-02-25T08:27:59.165Z,96795.14
2018-02-25T08:30:26.774Z,96788.88
2018-02-25T08:32:54.354Z,96793.91
2018-02-25T08:35:21.966Z,96799.27
2018-02-25T08:37:49.569Z,96790.17
2018-02-25T08:40:17.189Z,96798.48
2018-02-25T08:42:44.776Z,96792.70
2018-02-25T08:45:12.547Z,96790.61
2018-02-25T08:47:40.123Z,96792.67
2018-02-25T08:50:07.793Z,96795.19
2018-02-25T08:52:35.364Z,96793.11
2018-02-25T08:55:02.948Z,96788.53
2018-02-25T08:57:30.522Z,96788.95
2018-02-25T08:59:58.106Z,96789.77
2018-02-25T09:02:25.724Z,96787.66
2018-02-25T09:04:53.301Z,96791.00
2018-02-25T09:07:20.942Z,96788.51
2018-02-25T09:09:48.628Z,96790.14
2018-02-25T09:12:16.229Z,96788.51
2018-02-25T09:14:43.797Z,96793.10
2018-02-25T09:17:12.028Z,96792.63
2018-02-25T09:19:39.638Z,96789.32
2018-02-25T09:22:07.270Z,96788.52
2018-02-25T09:24:34.928Z,96778.59
2018-02-25T09:27:02.667Z,96780.66
2018-02-25T09:29:30.291Z,96781.46
2018-02-25T09:31:59.622Z,96778.88
2018-02-25T09:34:27.217Z,96777.15
2018-02-25T09:36:54.779Z,96769.74
2018-02-25T09:39:22.382Z,96773.56
2018-02-25T09:41:49.968Z,96775.23
2018-02-25T09:44:17.583Z,96763.22
2018-02-25T09:46:45.181Z,96770.69
2018-02-25T09:49:13.138Z,96767.78
2018-02-25T09:51:40.767Z,96771.52
2018-02-25T09:54:08.355Z,96768.19
2018-02-25T09:56:35.971Z,96768.16
2018-02-25T09:59:03.600Z,96763.53
2018-02-25T10:01:31.205Z,96757.30
2018-02-25T10:03:58.876Z,96756.31
2018-02-25T10:06:26.818Z,96762.98
2018-02-25T10:08:54.396Z,96758.77
2018-02-25T10:11:22.162Z,96755.98
2018-02-25T10:13:49.752Z,96760.04
2018-02-25T10:16:17.622Z,96761.87
2018-02-25T10:18:45.294Z,96750.07
2018-02-25T10:21:13.527Z,96756.56
2018-02-25T10:23:41.087Z,96750.86
2018-02-25T10:26:08.709Z,96737.10
2018-02-25T10:28:36.317Z,96739.68
2018-02-25T10:31:03.955Z,96737.72
2018-02-25T10:33:31.629Z,96741.11
2018-02-25T10:35:59.214Z,96742.84
2018-02-25T10:38:26.942Z,96739.03
2018-02-25T10:40:54.514Z,96738.20
2018-02-25T10:43:22.817Z,96739.48
2018-02-25T10:45:58.256Z,96730.44
2018-02-25T10:48:26.120Z,96730.81
2018-02-25T10:50:53.703Z,96735.80
2018-02-25T10:53:21.628Z,96725.02
2018-02-25T10:55:49.199Z,96725.02
2018-02-25T10:58:16.792Z,96720.00
2018-02-25T11:00:50.013Z,96711.30
2018-02-25T11:03:17.582Z,96704.61
2018-02-25T11:05:45.151Z,96709.59
2018-02-25T11:08:12.836Z,96707.11
2018-02-25T11:10:40.410Z,96709.97
2018-02-25T11:13:08.098Z,96701.70
2018-02-25T11:15:35.778Z,96706.24
2018-02-25T11:18:05.885Z,96708.65
2018-02-25T11:20:33.545Z,96697.41
2018-02-25T11:23:01.428Z,96691.80
2018-02-25T11:25:29.084Z,96691.28
2018-02-25T11:27:57.927Z,96693.24
2018-02-25T11:30:25.734Z,96686.75
2018-02-25T11:32:53.348Z,96681.85
2018-02-25T11:35:21.280Z,96679.67
2018-02-25T11:37:49.931Z,96674.58
2018-02-25T11:40:17.530Z,96670.34
2018-02-25T11:42:45.088Z,96665.09
2018-02-25T11:45:13.331Z,96670.66
2018-02-25T11:47:41.048Z,96659.74
2018-02-25T11:50:08.605Z,96668.04
2018-02-25T11:52:36.293Z,96661.35
2018-02-25T11:55:03.935Z,96655.35
2018-02-25T11:57:31.532Z,96656.60
2018-02-25T11:59:59.084Z,96651.37
2018-02-25T12:02:26.665Z,96655.37
2018-02-25T12:04:54.283Z,96649.94
2018-02-25T12:07:22.113Z,96646.11
2018-02-25T12:09:49.754Z,96641.20
2018-02-25T12:12:17.361Z,96636.95
2018-02-25T12:14:44.956Z,96640.35
2018-02-25T12:17:12.794Z,96633.42
2018-02-25T12:19:40.411Z,96624.02
2018-02-25T12:22:08.011Z,96633.88
2018-02-25T12:24:35.594Z,96634.60
2018-02-25T12:27:03.406Z,96627.44
2018-02-25T12:29:31.022Z,96627.67
2018-02-25T12:31:58.596Z,96618.80
2018-02-25T12:34:26.213Z,96618.02
2018-02-25T12:36:53.788Z,96619.52
2018-02-25T12:39:21.765Z,96626.27
2018-02-25T12:41:49.361Z,96617.68
2018-02-25T12:44:16.978Z,96614.73
2018-02-25T12:46:44.539Z,96616.34
2018-02-25T12:49:12.583Z,96616.80
2018-02-25T12:51:40.175Z,96603.86
2018-02-25T12:54:08.096Z,96603.59
2018-02-25T12:56:35.697Z,96593.43
2018-02-25T12:59:03.288Z,96599.53
2018-02-25T13:01:30.967Z,96603.77
2018-02-25T13:03:59.436Z,96600.13
2018-02-25T13:06:27.069Z,96601.27
2018-02-25T13:08:54.652Z,96599.05
2018-02-25T13:11:22.231Z,96600.90
2018-02-25T13:13:49.818Z,96588.02
2018-02-25T13:16:17.410Z,96593.53
2018-02-25T13:18:44.985Z,96581.42
2018-02-25T13:21:12.677Z,96574.89
2018-02-25T13:23:40.266Z,96577.02
2018-02-25T13:26:07.873Z,96567.94
2018-02-25T13:28:35.452Z,96573.39
2018-02-25T13:31:03.080Z,96574.42
2018-02-25T13:33:30.747Z,96570.64
2018-02-25T13:35:58.647Z,96574.29
2018-02-25T13:38:30.046Z,96569.89
2018-02-25T13:40:57.579Z,96567.26
2018-02-25T13:43:25.280Z,96568.00
2018-02-25T13:46:02.372Z,96561.30
2018-02-25T13:48:37.687Z,96564.20
2018-02-25T13:51:05.394Z,96563.36
2018-02-25T13:53:32.981Z,96558.23
2018-02-25T13:56:00.644Z,96555.92
2018-02-25T13:58:28.469Z,96553.23
2018-02-25T14:00:56.089Z,96557.78
2018-02-25T14:03:24.348Z,96555.73
2018-02-25T14:05:51.932Z,96555.86
2018-02-25T14:08:19.586Z,96554.56
2018-02-25T14:10:47.162Z,96560.05
2018-02-25T14:13:15.270Z,96554.22
2018-02-25T14:15:46.321Z,96552.61
2018-02-25T14:18:13.938Z,96547.73
2018-02-25T14:20:41.532Z,96549.63
2018-02-25T14:23:09.592Z,96562.42
2018-02-25T14:25:37.301Z,96556.73
2018-02-25T14:28:04.884Z,96559.15
2018-02-25T14:30:32.457Z,96553.75
2018-02-25T14:33:00.107Z,96554.47
2018-02-25T14:35:27.710Z,96556.36
2018-02-25T14:37:55.276Z,96557.22
2018-02-25T14:40:22.860Z,96557.11
2018-02-25T14:42:50.445Z,96553.86
2018-02-25T14:45:18.042Z,96557.52
2018-02-25T14:47:45.645Z,96558.77
2018-02-25T14:50:13.241Z,96557.30
2018-02-25T14:52:40.846Z,96559.94
2018-02-25T14:55:08.528Z,96551.40
2018-02-25T14:57:36.181Z,96551.11
2018-02-25T15:00:04.050Z,96553.30
2018-02-25T15:02:31.631Z,96552.05
2018-02-25T15:04:59.252Z,96542.84
2018-02-25T15:07:26.817Z,96543.40
2018-02-25T15:09:54.404Z,96542.08
2018-02-25T15:12:21.980Z,96545.05
2018-02-25T15:14:50.053Z,96541.18
2018-02-25T15:17:20.600Z,96543.03
2018-02-25T15:19:51.219Z,96538.30
2018-02-25T15:22:18.791Z,96539.19
2018-02-25T15:24:46.444Z,96530.81
2018-02-25T15:27:14.178Z,96534.03
2018-02-25T15:29:41.816Z,96534.23
2018-02-25T15:32:09.453Z,96535.92
2018-02-25T15:34:40.916Z,96532.08
2018-02-25T15:37:08.750Z,96539.47
2018-02-25T15:39:37.111Z,96534.38
2018-02-25T15:42:06.135Z,96535.88
2018-02-25T15:44:34.060Z,96533.83
2018-02-25T15:47:01.736Z,96537.58
2018-02-25T15:49:29.415Z,96531.89
2018-02-25T15:51:57.025Z,96538.45
2018-02-25T15:54:24.610Z,96543.63
2018-02-25T15:56:52.187Z,96546.70
2018-02-25T15:59:19.827Z,96549.61
2018-02-25T16:01:47.435Z,96554.66
2018-02-25T16:04:15.710Z,96557.98
2018-02-25T16:06:43.294Z,96555.39
2018-02-25T16:09:11.739Z,96556.37
2018-02-25T16:11:39.302Z,96558.63
2018-02-25T16:14:06.973Z,96556.63
2018-02-25T16:16:34.536Z,96556.72
2018-02-25T16:19:02.121Z,96565.49
2018-02-25T16:26:33.297Z,96570.16
2018-02-25T16:29:01.011Z,96573.55
2018-02-25T16:31:29.090Z,96568.59
2018-02-25T16:33:56.842Z,96572.38
2018-02-25T16:36:25.202Z,96573.64
2018-02-25T16:38:52.995Z,96576.53
2018-02-25T16:41:20.580Z,96574.94
2018-02-25T16:43:48.252Z,96582.41
2018-02-25T16:46:15.952Z,96588.22
2018-02-25T16:48:43.541Z,96595.27
2018-02-25T16:51:12.029Z,96596.08
2018-02-25T16:53:39.715Z,96601.45
2018-02-25T16:56:07.319Z,96603.52
2018-02-25T16:58:34.915Z,96613.46
2018-02-25T17:01:02.770Z,96605.58
2018-02-25T17:03:30.385Z,96608.47
2018-02-25T17:05:57.973Z,96610.53
2018-02-25T17:08:26.387Z,96615.88
2018-02-25T17:10:54.263Z,96615.43
2018-02-25T17:13:22.815Z,96612.91
2018-02-25T17:15:50.369Z,96614.52
2018-02-25T17:18:17.930Z,96615.73
2018-02-25T17:20:45.548Z,96620.66
2018-02-25T17:23:13.241Z,96622.67
2018-02-25T17:25:40.907Z,96624.29
2018-02-25T17:28:08.567Z,96625.08
2018-02-25T17:30:36.203Z,96622.16
2018-02-25T17:33:04.035Z,96627.11
2018-02-25T17:35:33.401Z,96624.58
2018-02-25T17:38:01.278Z,96623.30
2018-02-25T17:40:29.505Z,96625.36
2018-02-25T17:42:57.434Z,96626.16
2018-02-25T17:45:25.901Z,96629.83
2018-02-25T17:47:53.491Z,96620.31
2018-02-25T17:50:21.170Z,96627.28
2018-02-25T17:52:49.239Z,96625.58
2018-02-25T17:55:24.376Z,96627.66
2018-02-25T17:57:45.289Z,96628.08
2018-02-25T18:00:12.905Z,96623.14
2018-02-25T18:02:40.485Z,96620.99
2018-02-25T18:05:08.307Z,96618.44
2018-02-25T18:07:35.961Z,96622.52
2018-02-25T18:10:03.541Z,96629.50
2018-02-25T18:12:31.163Z,96628.57
2018-02-25T18:14:59.098Z,96618.20
2018-02-25T18:17:27.919Z,96621.03
2018-02-25T18:19:55.718Z,96623.87
2018-02-25T18:22:23.325Z,96623.84
2018-02-25T18:24:54.544Z,96626.69
2018-02-25T18:27:22.161Z,96629.95
2018-02-25T18:29:49.741Z,96629.45
2018-02-25T18:32:17.370Z,96631.41
2018-02-25T18:34:45.020Z,96631.03
2018-02-25T18:37:13.672Z,96631.79
2018-02-25T18:39:41.264Z,96638.00
2018-02-25T18:42:10.205Z,96634.21
2018-02-25T18:44:37.795Z,96636.11
2018-02-25T18:47:05.603Z,96648.37
2018-02-25T18:49:33.200Z,96642.13
2018-02-25T18:52:01.267Z,96643.77
2018-02-25T18:54:29.243Z,96645.80
2018-02-25T18:56:56.823Z,96652.30
2018-02-25T18:59:24.643Z,96654.59
2018-02-25T19:01:58.444Z,96655.34
2018-02-25T19:04:26.325Z,96659.42
2018-02-25T19:06:53.921Z,96655.73
2018-02-25T19:09:29.836Z,96657.76
2018-02-25T19:12:04.211Z,96653.53
2018-02-25T19:14:44.375Z,96659.59
2018-02-25T19:17:12.264Z,96659.05
2018-02-25T19:19:39.958Z,96656.50
2018-02-25T19:22:07.576Z,96659.73
2018-02-25T19:24:38.872Z,96662.94
2018-02-25T19:27:06.694Z,96632.84
2018-02-25T19:29:34.955Z,96659.89
2018-02-25T19:32:02.583Z,96661.41
2018-02-25T19:34:31.904Z,96662.13
2018-02-25T19:37:05.063Z,96664.16
2018-02-25T19:39:39.027Z,96663.27
2018-02-25T19:42:15.072Z,96665.20
2018-02-25T19:44:42.918Z,96663.90
2018-02-25T19:47:10.643Z,96673.31
2018-02-25T19:49:38.397Z,96673.23
2018-02-25T19:52:06.026Z,96674.43
2018-02-25T19:54:33.622Z,96675.96
2018-02-25T19:57:01.230Z,96673.81
2018-02-25T19:59:28.865Z,96682.39
2018-02-25T20:01:56.476Z,96684.02
2018-02-25T20:04:25.602Z,96686.41
2018-02-25T20:06:53.220Z,96683.05
2018-02-25T20:09:20.934Z,96683.00
2018-02-25T20:11:48.666Z,96684.23
2018-02-25T20:14:16.369Z,96675.47
2018-02-25T20:16:43.951Z,96686.55
2018-02-25T20:19:12.410Z,96685.27
2018-02-25T20:21:39.989Z,96681.48
2018-02-25T20:24:07.586Z,96679.33
2018-02-25T20:26:35.211Z,96673.53
2018-02-25T20:29:02.875Z,96681.24
2018-02-25T20:31:32.081Z,96680.43
2018-02-25T20:33:59.677Z,96684.89
2018-02-25T20:36:27.272Z,96681.08
2018-02-25T20:38:54.849Z,96676.09
2018-02-25T20:41:23.598Z,96680.49
2018-02-25T20:43:51.264Z,96679.27
2018-02-25T20:46:18.857Z,96679.29
2018-02-25T20:48:46.558Z,96680.52
2018-02-25T20:51:14.879Z,96676.73
2018-02-25T20:53:42.454Z,96681.59
2018-02-25T20:56:10.052Z,96683.69
2018-02-25T20:58:37.628Z,96671.30
2018-02-25T21:01:05.228Z,96674.95
2018-02-25T21:03:32.839Z,96673.77
2018-02-25T21:06:00.438Z,96668.58
2018-02-25T21:08:28.034Z,96671.55
2018-02-25T21:10:55.715Z,96670.03
2018-02-25T21:13:23.708Z,96667.14
2018-02-25T21:15:51.417Z,96665.94
2018-02-25T21:18:19.594Z,96670.82
2018-02-25T21:20:47.251Z,96670.00
2018-02-25T21:23:14.883Z,96673.68
2018-02-25T21:25:43.084Z,96675.25
2018-02-25T21:28:10.753Z,96675.20
2018-02-25T21:30:38.379Z,96676.73
2018-02-25T21:33:06.501Z,96675.79
2018-02-25T21:35:34.094Z,96676.01
2018-02-25T21:38:01.731Z,96679.31
2018-02-25T21:40:29.402Z,96671.47
2018-02-25T21:42:57.000Z,96669.06
2018-02-25T21:45:25.917Z,96671.11
2018-02-25T21:47:53.770Z,96671.47
2018-02-25T21:50:21.653Z,96665.78
2018-02-25T21:52:49.231Z,96670.23
2018-02-25T21:55:17.441Z,96664.41
2018-02-25T21:57:50.545Z,96664.83
2018-02-25T22:00:18.194Z,96667.99
2018-02-25T22:02:51.510Z,96663.51
2018-02-25T22:05:19.443Z,96658.55
2018-02-25T22:07:47.134Z,96659.28
2018-02-25T22:10:14.753Z,96660.42
2018-02-25T22:12:42.584Z,96662.74
2018-02-25T22:15:11.052Z,96665.52
2018-02-25T22:17:38.840Z,96659.71
2018-02-25T22:20:06.469Z,96656.86
2018-02-25T22:22:34.154Z,96652.68
2018-02-25T22:25:01.794Z,96651.72
2018-02-25T22:27:29.497Z,96651.56
2018-02-25T22:29:57.092Z,96652.34
2018-02-25T22:32:24.970Z,96653.55
2018-02-25T22:34:52.573Z,96647.63
2018-02-25T22:37:20.215Z,96647.72
2018-02-25T22:39:47.874Z,96652.20
2018-02-25T22:42:15.470Z,96651.78
2018-02-25T22:44:43.119Z,96650.55
2018-02-25T22:47:11.518Z,96648.95
2018-02-25T22:49:40.060Z,96646.84
2018-02-25T22:52:07.734Z,96642.97
2018-02-25T22:54:35.686Z,96649.48
2018-02-25T22:57:03.282Z,96644.05
2018-02-25T22:59:30.878Z,96643.27
2018-02-25T23:01:58.960Z,96640.87
2018-02-25T23:04:26.581Z,96640.87
2018-02-25T23:06:54.156Z,96633.48
2018-02-25T23:09:21.755Z,96635.13
2018-02-25T23:11:51.822Z,96641.77
2018-02-25T23:14:19.556Z,96643.03
2018-02-25T23:16:47.146Z,96642.97
2018-02-25T23:19:15.403Z,96642.97
2018-02-25T23:21:43.001Z,96639.72
2018-02-25T23:24:10.581Z,96636.66
2018-02-25T23:26:40.145Z,96639.61
2018-02-25T23:29:08.050Z,96630.47
2018-02-25T23:31:37.501Z,96624.82
2018-02-25T23:34:05.163Z,96628.09
2018-02-25T23:36:34.105Z,96625.06
2018-02-25T23:39:01.827Z,96624.16
2018-02-25T23:41:29.416Z,96624.59
2018-02-25T23:43:58.262Z,96622.42
2018-02-25T23:46:27.613Z,96622.09
2018-02-25T23:48:55.255Z,96624.22
2018-02-25T23:51:22.809Z,96623.41
2018-02-25T23:53:50.406Z,96617.55
2018-02-25T23:56:17.986Z,96626.59
2018-02-25T23:58:45.561Z,96621.38
